sensor_id;sensor_type;location;lat;lon;timestamp;temperature;humidity
23079;DHT22;11707;50.830;4.364;2022-11-15T00:01:36;12.40;99.90
23079;DHT22;11707;50.830;4.364;2022-11-15T00:04:05;12.40;99.90
23079;DHT22;11707;50.830;4.364;2022-11-15T00:06:31;12.50;99.90
23079;DHT22;11707;50.830;4.364;2022-11-15T00:09:00;12.50;99.90
23079;DHT22;11707;50.830;4.364;2022-11-15T00:11:26;12.50;99.90
23079;DHT22;11707;50.830;4.364;2022-11-15T00:13:56;12.50;99.90
23079;DHT22;11707;50.830;4.364;2022-11-15T00:16:22;12.50;99.90
23079;DHT22;11707;50.830;4.364;2022-11-15T00:18:48;12.50;99.90
23079;DHT22;11707;50.830;4.364;2022-11-15T00:21:15;12.50;99.90
23079;DHT22;11707;50.830;4.364;2022-11-15T00:23:41;12.40;99.90
23079;DHT22;11707;50.830;4.364;2022-11-15T00:26:11;12.40;99.90
23079;DHT22;11707;50.830;4.364;2022-11-15T00:28:37;12.50;99.90
23079;DHT22;11707;50.830;4.364;2022-11-15T00:31:05;12.50;99.90
23079;DHT22;11707;50.830;4.364;2022-11-15T00:33:31;12.50;99.90
23079;DHT22;11707;50.830;4.364;2022-11-15T00:36:06;12.50;99.90
23079;DHT22;11707;50.830;4.364;2022-11-15T00:38:33;12.50;99.90
23079;DHT22;11707;50.830;4.364;2022-11-15T00:41:00;12.50;99.90
23079;DHT22;11707;50.830;4.364;2022-11-15T00:43:26;12.60;99.90
23079;DHT22;11707;50.830;4.364;2022-11-15T00:45:51;12.60;99.90
23079;DHT22;11707;50.830;4.364;2022-11-15T00:48:17;12.60;99.90
23079;DHT22;11707;50.830;4.364;2022-11-15T00:50:43;12.50;99.90
23079;DHT22;11707;50.830;4.364;2022-11-15T00:53:09;12.50;99.90
23079;DHT22;11707;50.830;4.364;2022-11-15T00:55:35;12.40;99.90
23079;DHT22;11707;50.830;4.364;2022-11-15T00:58:00;12.40;99.90
23079;DHT22;11707;50.830;4.364;2022-11-15T01:00:26;12.40;99.90
23079;DHT22;11707;50.830;4.364;2022-11-15T01:02:52;12.40;99.90
23079;DHT22;11707;50.830;4.364;2022-11-15T01:05:17;12.30;99.90
23079;DHT22;11707;50.830;4.364;2022-11-15T01:07:43;12.40;99.90
23079;DHT22;11707;50.830;4.364;2022-11-15T01:10:09;12.40;99.90
23079;DHT22;11707;50.830;4.364;2022-11-15T01:12:35;12.50;99.90
23079;DHT22;11707;50.830;4.364;2022-11-15T01:15:01;12.60;99.90
23079;DHT22;11707;50.830;4.364;2022-11-15T01:17:27;12.60;99.90
23079;DHT22;11707;50.830;4.364;2022-11-15T01:19:52;12.60;99.90
23079;DHT22;11707;50.830;4.364;2022-11-15T01:22:20;12.50;99.90
23079;DHT22;11707;50.830;4.364;2022-11-15T01:24:46;12.40;99.90
23079;DHT22;11707;50.830;4.364;2022-11-15T01:27:11;12.50;99.90
23079;DHT22;11707;50.830;4.364;2022-11-15T01:29:37;12.50;99.90
23079;DHT22;11707;50.830;4.364;2022-11-15T01:32:03;12.50;99.90
23079;DHT22;11707;50.830;4.364;2022-11-15T01:34:29;12.60;99.90
23079;DHT22;11707;50.830;4.364;2022-11-15T01:36:55;12.50;99.90
23079;DHT22;11707;50.830;4.364;2022-11-15T01:39:20;12.40;99.90
23079;DHT22;11707;50.830;4.364;2022-11-15T01:41:46;12.40;99.90
23079;DHT22;11707;50.830;4.364;2022-11-15T01:46:58;12.40;99.90
23079;DHT22;11707;50.830;4.364;2022-11-15T01:49:25;12.40;99.90
23079;DHT22;11707;50.830;4.364;2022-11-15T01:51:53;12.30;99.90
23079;DHT22;11707;50.830;4.364;2022-11-15T01:54:20;12.30;99.90
23079;DHT22;11707;50.830;4.364;2022-11-15T01:57:01;12.40;99.90
23079;DHT22;11707;50.830;4.364;2022-11-15T01:59:28;12.40;99.90
23079;DHT22;11707;50.830;4.364;2022-11-15T02:01:54;12.50;99.90
23079;DHT22;11707;50.830;4.364;2022-11-15T02:04:26;12.70;99.90
23079;DHT22;11707;50.830;4.364;2022-11-15T02:06:53;12.70;99.90
23079;DHT22;11707;50.830;4.364;2022-11-15T02:09:19;12.60;99.90
23079;DHT22;11707;50.830;4.364;2022-11-15T02:11:46;12.60;99.90
23079;DHT22;11707;50.830;4.364;2022-11-15T02:14:14;12.60;99.90
23079;DHT22;11707;50.830;4.364;2022-11-15T02:17:24;12.60;99.90
23079;DHT22;11707;50.830;4.364;2022-11-15T02:25:40;12.50;99.90
23079;DHT22;11707;50.830;4.364;2022-11-15T02:31:36;12.40;99.90
23079;DHT22;11707;50.830;4.364;2022-11-15T02:42:27;12.60;99.90
23079;DHT22;11707;50.830;4.364;2022-11-15T02:45:22;12.50;99.90
23079;DHT22;11707;50.830;4.364;2022-11-15T02:47:51;12.60;99.90
23079;DHT22;11707;50.830;4.364;2022-11-15T02:50:23;12.40;99.90
23079;DHT22;11707;50.830;4.364;2022-11-15T02:52:51;12.40;99.90
23079;DHT22;11707;50.830;4.364;2022-11-15T02:55:37;12.40;99.90
23079;DHT22;11707;50.830;4.364;2022-11-15T03:11:31;12.30;99.90
23079;DHT22;11707;50.830;4.364;2022-11-15T03:14:13;12.30;99.90
23079;DHT22;11707;50.830;4.364;2022-11-15T03:16:50;12.30;99.90
23079;DHT22;11707;50.830;4.364;2022-11-15T03:19:40;12.40;99.90
23079;DHT22;11707;50.830;4.364;2022-11-15T03:22:12;12.40;99.90
23079;DHT22;11707;50.830;4.364;2022-11-15T03:24:42;12.40;99.90
23079;DHT22;11707;50.830;4.364;2022-11-15T03:27:12;12.30;99.90
23079;DHT22;11707;50.830;4.364;2022-11-15T03:29:43;12.40;99.90
23079;DHT22;11707;50.830;4.364;2022-11-15T03:32:14;12.30;99.90
23079;DHT22;11707;50.830;4.364;2022-11-15T03:37:10;12.50;99.90
23079;DHT22;11707;50.830;4.364;2022-11-15T03:39:37;12.40;99.90
23079;DHT22;11707;50.830;4.364;2022-11-15T03:42:30;12.20;99.90
23079;DHT22;11707;50.830;4.364;2022-11-15T03:45:22;12.20;99.90
23079;DHT22;11707;50.830;4.364;2022-11-15T03:47:53;12.20;99.90
23079;DHT22;11707;50.830;4.364;2022-11-15T03:50:21;12.00;99.90
23079;DHT22;11707;50.830;4.364;2022-11-15T03:52:48;11.90;99.90
23079;DHT22;11707;50.830;4.364;2022-11-15T03:55:19;12.00;99.90
23079;DHT22;11707;50.830;4.364;2022-11-15T03:57:47;12.00;99.90
23079;DHT22;11707;50.830;4.364;2022-11-15T04:00:13;12.10;99.90
23079;DHT22;11707;50.830;4.364;2022-11-15T04:02:39;12.10;99.90
23079;DHT22;11707;50.830;4.364;2022-11-15T04:05:05;12.10;99.90
23079;DHT22;11707;50.830;4.364;2022-11-15T04:07:31;12.20;99.90
23079;DHT22;11707;50.830;4.364;2022-11-15T04:09:56;12.10;99.90
23079;DHT22;11707;50.830;4.364;2022-11-15T04:12:29;12.00;99.90
23079;DHT22;11707;50.830;4.364;2022-11-15T04:15:07;12.10;99.90
23079;DHT22;11707;50.830;4.364;2022-11-15T04:17:38;12.20;99.90
23079;DHT22;11707;50.830;4.364;2022-11-15T04:20:07;12.30;99.90
23079;DHT22;11707;50.830;4.364;2022-11-15T04:22:56;12.30;99.90
23079;DHT22;11707;50.830;4.364;2022-11-15T04:25:41;12.30;99.90
23079;DHT22;11707;50.830;4.364;2022-11-15T04:28:07;12.30;99.90
23079;DHT22;11707;50.830;4.364;2022-11-15T04:30:33;12.40;99.90
23079;DHT22;11707;50.830;4.364;2022-11-15T04:32:59;12.40;99.90
23079;DHT22;11707;50.830;4.364;2022-11-15T04:35:25;12.30;99.90
23079;DHT22;11707;50.830;4.364;2022-11-15T04:37:50;12.30;99.90
23079;DHT22;11707;50.830;4.364;2022-11-15T04:40:16;12.10;99.90
23079;DHT22;11707;50.830;4.364;2022-11-15T04:42:42;12.10;99.90
23079;DHT22;11707;50.830;4.364;2022-11-15T04:45:09;11.90;99.90
23079;DHT22;11707;50.830;4.364;2022-11-15T04:47:35;11.80;99.90
23079;DHT22;11707;50.830;4.364;2022-11-15T04:50:00;11.50;99.90
23079;DHT22;11707;50.830;4.364;2022-11-15T04:52:26;11.50;99.90
23079;DHT22;11707;50.830;4.364;2022-11-15T04:54:52;11.50;99.90
23079;DHT22;11707;50.830;4.364;2022-11-15T04:57:18;11.70;99.90
23079;DHT22;11707;50.830;4.364;2022-11-15T04:59:44;11.70;99.90
23079;DHT22;11707;50.830;4.364;2022-11-15T05:02:09;11.80;99.90
23079;DHT22;11707;50.830;4.364;2022-11-15T05:04:35;11.70;99.90
23079;DHT22;11707;50.830;4.364;2022-11-15T05:07:01;11.40;99.90
23079;DHT22;11707;50.830;4.364;2022-11-15T05:09:27;11.40;99.90
23079;DHT22;11707;50.830;4.364;2022-11-15T05:11:53;11.40;99.90
23079;DHT22;11707;50.830;4.364;2022-11-15T05:14:18;11.50;99.90
23079;DHT22;11707;50.830;4.364;2022-11-15T05:16:44;11.50;99.90
23079;DHT22;11707;50.830;4.364;2022-11-15T05:19:10;11.30;99.90
23079;DHT22;11707;50.830;4.364;2022-11-15T05:21:37;11.10;99.90
23079;DHT22;11707;50.830;4.364;2022-11-15T05:24:03;11.00;99.90
23079;DHT22;11707;50.830;4.364;2022-11-15T05:26:29;10.80;99.90
23079;DHT22;11707;50.830;4.364;2022-11-15T05:28:56;10.80;99.90
23079;DHT22;11707;50.830;4.364;2022-11-15T05:31:22;10.80;99.90
23079;DHT22;11707;50.830;4.364;2022-11-15T05:33:50;10.90;99.90
23079;DHT22;11707;50.830;4.364;2022-11-15T05:36:36;10.80;99.90
23079;DHT22;11707;50.830;4.364;2022-11-15T05:39:05;10.70;99.90
23079;DHT22;11707;50.830;4.364;2022-11-15T05:41:35;10.80;99.90
23079;DHT22;11707;50.830;4.364;2022-11-15T05:44:03;10.70;99.90
23079;DHT22;11707;50.830;4.364;2022-11-15T05:46:32;10.80;99.90
23079;DHT22;11707;50.830;4.364;2022-11-15T05:48:58;10.90;99.90
23079;DHT22;11707;50.830;4.364;2022-11-15T05:51:26;10.90;99.90
23079;DHT22;11707;50.830;4.364;2022-11-15T05:53:55;10.80;99.90
23079;DHT22;11707;50.830;4.364;2022-11-15T05:56:22;10.80;99.90
23079;DHT22;11707;50.830;4.364;2022-11-15T05:58:48;10.80;99.90
23079;DHT22;11707;50.830;4.364;2022-11-15T06:01:14;10.70;99.90
23079;DHT22;11707;50.830;4.364;2022-11-15T06:03:39;10.70;99.90
23079;DHT22;11707;50.830;4.364;2022-11-15T06:06:05;10.60;99.90
23079;DHT22;11707;50.830;4.364;2022-11-15T06:08:31;10.70;99.90
23079;DHT22;11707;50.830;4.364;2022-11-15T06:11:03;10.60;99.90
23079;DHT22;11707;50.830;4.364;2022-11-15T06:13:29;10.50;99.90
23079;DHT22;11707;50.830;4.364;2022-11-15T06:15:55;10.60;99.90
23079;DHT22;11707;50.830;4.364;2022-11-15T06:18:22;10.50;99.90
23079;DHT22;11707;50.830;4.364;2022-11-15T06:20:47;10.50;99.90
23079;DHT22;11707;50.830;4.364;2022-11-15T06:23:13;10.70;99.90
23079;DHT22;11707;50.830;4.364;2022-11-15T06:25:39;10.60;99.90
23079;DHT22;11707;50.830;4.364;2022-11-15T06:28:05;10.50;99.90
23079;DHT22;11707;50.830;4.364;2022-11-15T06:30:30;10.50;99.90
23079;DHT22;11707;50.830;4.364;2022-11-15T06:33:04;10.50;99.90
23079;DHT22;11707;50.830;4.364;2022-11-15T06:35:33;10.60;99.90
23079;DHT22;11707;50.830;4.364;2022-11-15T06:38:04;10.60;99.90
23079;DHT22;11707;50.830;4.364;2022-11-15T06:40:30;10.70;99.90
23079;DHT22;11707;50.830;4.364;2022-11-15T06:42:58;10.50;99.90
23079;DHT22;11707;50.830;4.364;2022-11-15T06:45:25;10.30;99.90
23079;DHT22;11707;50.830;4.364;2022-11-15T06:47:51;10.20;99.90
23079;DHT22;11707;50.830;4.364;2022-11-15T06:50:16;10.20;99.90
23079;DHT22;11707;50.830;4.364;2022-11-15T06:52:42;10.20;99.90
23079;DHT22;11707;50.830;4.364;2022-11-15T06:55:08;10.20;99.90
23079;DHT22;11707;50.830;4.364;2022-11-15T06:57:35;10.20;99.90
23079;DHT22;11707;50.830;4.364;2022-11-15T07:00:01;10.20;99.90
23079;DHT22;11707;50.830;4.364;2022-11-15T07:02:27;10.20;99.90
23079;DHT22;11707;50.830;4.364;2022-11-15T07:04:53;10.20;99.90
23079;DHT22;11707;50.830;4.364;2022-11-15T07:07:19;10.10;99.90
23079;DHT22;11707;50.830;4.364;2022-11-15T07:09:45;10.10;99.90
23079;DHT22;11707;50.830;4.364;2022-11-15T07:12:10;10.20;99.90
23079;DHT22;11707;50.830;4.364;2022-11-15T07:14:36;10.40;99.90
23079;DHT22;11707;50.830;4.364;2022-11-15T07:17:04;10.30;99.90
23079;DHT22;11707;50.830;4.364;2022-11-15T07:19:30;10.20;99.90
23079;DHT22;11707;50.830;4.364;2022-11-15T07:21:56;10.20;99.90
23079;DHT22;11707;50.830;4.364;2022-11-15T07:24:21;10.20;99.90
23079;DHT22;11707;50.830;4.364;2022-11-15T07:26:47;10.30;99.90
23079;DHT22;11707;50.830;4.364;2022-11-15T07:29:13;10.30;99.90
23079;DHT22;11707;50.830;4.364;2022-11-15T07:31:38;10.30;99.90
23079;DHT22;11707;50.830;4.364;2022-11-15T07:34:04;10.40;99.90
23079;DHT22;11707;50.830;4.364;2022-11-15T07:36:30;10.30;99.90
23079;DHT22;11707;50.830;4.364;2022-11-15T07:38:56;10.20;99.90
23079;DHT22;11707;50.830;4.364;2022-11-15T07:41:22;10.30;99.90
23079;DHT22;11707;50.830;4.364;2022-11-15T07:43:51;10.40;99.90
23079;DHT22;11707;50.830;4.364;2022-11-15T07:46:17;10.30;99.90
23079;DHT22;11707;50.830;4.364;2022-11-15T07:48:42;10.10;99.90
23079;DHT22;11707;50.830;4.364;2022-11-15T07:51:14;10.20;99.90
23079;DHT22;11707;50.830;4.364;2022-11-15T07:53:44;10.10;99.90
23079;DHT22;11707;50.830;4.364;2022-11-15T07:56:10;10.20;99.90
23079;DHT22;11707;50.830;4.364;2022-11-15T07:58:36;10.20;99.90
23079;DHT22;11707;50.830;4.364;2022-11-15T08:01:04;10.20;99.90
23079;DHT22;11707;50.830;4.364;2022-11-15T08:03:29;10.20;99.90
23079;DHT22;11707;50.830;4.364;2022-11-15T08:05:55;10.20;99.90
23079;DHT22;11707;50.830;4.364;2022-11-15T08:08:22;10.20;99.90
23079;DHT22;11707;50.830;4.364;2022-11-15T08:10:47;10.10;99.90
23079;DHT22;11707;50.830;4.364;2022-11-15T08:13:14;10.10;99.90
23079;DHT22;11707;50.830;4.364;2022-11-15T08:15:39;10.20;99.90
23079;DHT22;11707;50.830;4.364;2022-11-15T08:18:16;10.20;99.90
23079;DHT22;11707;50.830;4.364;2022-11-15T08:20:42;10.30;99.90
23079;DHT22;11707;50.830;4.364;2022-11-15T08:23:10;10.40;99.90
23079;DHT22;11707;50.830;4.364;2022-11-15T08:25:37;10.40;99.90
23079;DHT22;11707;50.830;4.364;2022-11-15T08:28:05;10.40;99.90
23079;DHT22;11707;50.830;4.364;2022-11-15T08:30:38;10.30;99.90
23079;DHT22;11707;50.830;4.364;2022-11-15T08:33:11;10.40;99.90
23079;DHT22;11707;50.830;4.364;2022-11-15T08:35:37;10.30;99.90
23079;DHT22;11707;50.830;4.364;2022-11-15T08:38:03;10.20;99.90
23079;DHT22;11707;50.830;4.364;2022-11-15T08:40:28;10.40;99.90
23079;DHT22;11707;50.830;4.364;2022-11-15T08:42:54;10.40;99.90
23079;DHT22;11707;50.830;4.364;2022-11-15T08:45:20;10.40;99.90
23079;DHT22;11707;50.830;4.364;2022-11-15T08:47:46;10.50;99.90
23079;DHT22;11707;50.830;4.364;2022-11-15T08:50:11;10.50;99.90
23079;DHT22;11707;50.830;4.364;2022-11-15T08:52:37;10.50;99.90
23079;DHT22;11707;50.830;4.364;2022-11-15T08:55:03;10.50;99.90
23079;DHT22;11707;50.830;4.364;2022-11-15T08:57:30;10.60;99.90
23079;DHT22;11707;50.830;4.364;2022-11-15T08:59:56;10.70;99.90
23079;DHT22;11707;50.830;4.364;2022-11-15T09:02:23;10.70;99.90
23079;DHT22;11707;50.830;4.364;2022-11-15T09:04:49;10.80;99.90
23079;DHT22;11707;50.830;4.364;2022-11-15T09:07:15;10.80;99.90
23079;DHT22;11707;50.830;4.364;2022-11-15T09:09:40;10.80;99.90
23079;DHT22;11707;50.830;4.364;2022-11-15T09:12:07;10.70;99.90
23079;DHT22;11707;50.830;4.364;2022-11-15T09:14:33;10.80;99.90
23079;DHT22;11707;50.830;4.364;2022-11-15T09:16:59;10.80;99.90
23079;DHT22;11707;50.830;4.364;2022-11-15T09:19:25;10.80;99.90
23079;DHT22;11707;50.830;4.364;2022-11-15T09:21:51;10.90;99.90
23079;DHT22;11707;50.830;4.364;2022-11-15T09:24:17;10.90;99.90
23079;DHT22;11707;50.830;4.364;2022-11-15T09:26:43;11.00;99.90
23079;DHT22;11707;50.830;4.364;2022-11-15T09:29:08;11.10;99.90
23079;DHT22;11707;50.830;4.364;2022-11-15T09:31:34;11.20;99.90
23079;DHT22;11707;50.830;4.364;2022-11-15T09:34:00;11.20;99.90
23079;DHT22;11707;50.830;4.364;2022-11-15T09:36:26;11.20;99.90
23079;DHT22;11707;50.830;4.364;2022-11-15T09:38:52;11.40;99.90
23079;DHT22;11707;50.830;4.364;2022-11-15T09:50:06;11.40;99.90
23079;DHT22;11707;50.830;4.364;2022-11-15T09:52:35;11.50;99.90
23079;DHT22;11707;50.830;4.364;2022-11-15T09:55:01;11.60;99.90
23079;DHT22;11707;50.830;4.364;2022-11-15T09:57:39;11.70;99.90
23079;DHT22;11707;50.830;4.364;2022-11-15T10:00:29;11.50;99.90
23079;DHT22;11707;50.830;4.364;2022-11-15T10:05:53;11.70;99.90
23079;DHT22;11707;50.830;4.364;2022-11-15T10:11:00;12.00;99.90
23079;DHT22;11707;50.830;4.364;2022-11-15T10:13:30;12.10;99.90
23079;DHT22;11707;50.830;4.364;2022-11-15T10:16:07;12.00;99.90
23079;DHT22;11707;50.830;4.364;2022-11-15T10:18:35;12.10;99.90
23079;DHT22;11707;50.830;4.364;2022-11-15T10:21:18;12.10;99.90
23079;DHT22;11707;50.830;4.364;2022-11-15T10:23:45;12.10;99.90
23079;DHT22;11707;50.830;4.364;2022-11-15T10:26:15;12.00;99.90
23079;DHT22;11707;50.830;4.364;2022-11-15T10:28:41;12.00;99.90
23079;DHT22;11707;50.830;4.364;2022-11-15T10:31:28;12.20;99.90
23079;DHT22;11707;50.830;4.364;2022-11-15T10:34:19;12.40;99.90
23079;DHT22;11707;50.830;4.364;2022-11-15T10:37:05;12.40;99.90
23079;DHT22;11707;50.830;4.364;2022-11-15T10:39:31;12.40;99.90
23079;DHT22;11707;50.830;4.364;2022-11-15T10:42:15;12.30;99.90
23079;DHT22;11707;50.830;4.364;2022-11-15T10:44:43;12.30;99.90
23079;DHT22;11707;50.830;4.364;2022-11-15T10:52:51;12.30;99.90
23079;DHT22;11707;50.830;4.364;2022-11-15T10:57:51;12.60;99.90
23079;DHT22;11707;50.830;4.364;2022-11-15T11:02:59;12.50;99.90
23079;DHT22;11707;50.830;4.364;2022-11-15T11:10:55;12.60;99.90
23079;DHT22;11707;50.830;4.364;2022-11-15T11:13:24;12.70;99.90
23079;DHT22;11707;50.830;4.364;2022-11-15T11:16:14;12.80;99.90
23079;DHT22;11707;50.830;4.364;2022-11-15T11:19:06;12.70;99.90
23079;DHT22;11707;50.830;4.364;2022-11-15T11:30:23;13.10;99.90
23079;DHT22;11707;50.830;4.364;2022-11-15T11:35:50;13.00;99.90
23079;DHT22;11707;50.830;4.364;2022-11-15T11:41:42;13.20;99.90
23079;DHT22;11707;50.830;4.364;2022-11-15T11:47:12;13.00;99.90
23079;DHT22;11707;50.830;4.364;2022-11-15T11:49:42;13.10;99.90
23079;DHT22;11707;50.830;4.364;2022-11-15T11:52:11;13.20;99.90
23079;DHT22;11707;50.830;4.364;2022-11-15T11:54:55;13.10;99.90
23079;DHT22;11707;50.830;4.364;2022-11-15T12:00:21;13.20;99.90
23079;DHT22;11707;50.830;4.364;2022-11-15T12:13:38;13.40;99.90
23079;DHT22;11707;50.830;4.364;2022-11-15T12:16:40;13.40;99.90
23079;DHT22;11707;50.830;4.364;2022-11-15T12:19:02;13.40;99.90
23079;DHT22;11707;50.830;4.364;2022-11-15T12:21:52;13.50;99.90
23079;DHT22;11707;50.830;4.364;2022-11-15T12:24:24;13.20;99.90
23079;DHT22;11707;50.830;4.364;2022-11-15T12:27:12;13.00;99.90
23079;DHT22;11707;50.830;4.364;2022-11-15T12:29:51;13.10;99.90
23079;DHT22;11707;50.830;4.364;2022-11-15T12:34:50;13.10;99.90
23079;DHT22;11707;50.830;4.364;2022-11-15T12:43:00;13.10;99.90
23079;DHT22;11707;50.830;4.364;2022-11-15T12:58:56;13.40;99.90
23079;DHT22;11707;50.830;4.364;2022-11-15T13:06:56;13.40;99.90
23079;DHT22;11707;50.830;4.364;2022-11-15T13:11:58;13.70;99.90
23079;DHT22;11707;50.830;4.364;2022-11-15T13:14:42;13.70;99.90
23079;DHT22;11707;50.830;4.364;2022-11-15T13:17:32;13.80;99.90
23079;DHT22;11707;50.830;4.364;2022-11-15T13:20:09;13.80;99.90
23079;DHT22;11707;50.830;4.364;2022-11-15T13:33:23;13.60;99.90
23079;DHT22;11707;50.830;4.364;2022-11-15T13:35:58;13.70;99.90
23079;DHT22;11707;50.830;4.364;2022-11-15T13:38:26;13.70;99.90
23079;DHT22;11707;50.830;4.364;2022-11-15T13:40:52;13.70;99.90
23079;DHT22;11707;50.830;4.364;2022-11-15T13:43:37;13.70;99.90
23079;DHT22;11707;50.830;4.364;2022-11-15T13:49:10;13.70;99.90
23079;DHT22;11707;50.830;4.364;2022-11-15T13:51:57;13.80;99.90
23079;DHT22;11707;50.830;4.364;2022-11-15T13:57:21;13.80;99.90
23079;DHT22;11707;50.830;4.364;2022-11-15T13:59:52;13.80;99.90
23079;DHT22;11707;50.830;4.364;2022-11-15T14:02:21;13.80;99.90
23079;DHT22;11707;50.830;4.364;2022-11-15T14:07:39;13.60;99.90
23079;DHT22;11707;50.830;4.364;2022-11-15T14:10:34;13.60;99.90
23079;DHT22;11707;50.830;4.364;2022-11-15T14:13:02;13.70;99.90
23079;DHT22;11707;50.830;4.364;2022-11-15T14:15:35;13.70;99.90
23079;DHT22;11707;50.830;4.364;2022-11-15T14:18:01;13.70;99.90
23079;DHT22;11707;50.830;4.364;2022-11-15T14:22:59;13.80;99.90
23079;DHT22;11707;50.830;4.364;2022-11-15T14:25:33;13.70;99.90
23079;DHT22;11707;50.830;4.364;2022-11-15T14:28:29;13.60;99.90
23079;DHT22;11707;50.830;4.364;2022-11-15T14:30:57;13.30;99.90
23079;DHT22;11707;50.830;4.364;2022-11-15T14:33:33;13.30;99.90
23079;DHT22;11707;50.830;4.364;2022-11-15T14:36:19;13.30;99.90
23079;DHT22;11707;50.830;4.364;2022-11-15T14:38:46;13.10;99.90
23079;DHT22;11707;50.830;4.364;2022-11-15T14:41:25;13.10;99.90
23079;DHT22;11707;50.830;4.364;2022-11-15T14:43:57;13.20;99.90
23079;DHT22;11707;50.830;4.364;2022-11-15T14:46:23;13.00;99.90
23079;DHT22;11707;50.830;4.364;2022-11-15T14:48:49;13.00;99.90
23079;DHT22;11707;50.830;4.364;2022-11-15T14:51:18;12.90;99.90
23079;DHT22;11707;50.830;4.364;2022-11-15T14:53:45;12.90;99.90
23079;DHT22;11707;50.830;4.364;2022-11-15T14:56:11;12.90;99.90
23079;DHT22;11707;50.830;4.364;2022-11-15T14:58:38;12.90;99.90
23079;DHT22;11707;50.830;4.364;2022-11-15T15:03:39;12.80;99.90
23079;DHT22;11707;50.830;4.364;2022-11-15T15:06:05;12.70;99.90
23079;DHT22;11707;50.830;4.364;2022-11-15T15:08:31;12.80;99.90
23079;DHT22;11707;50.830;4.364;2022-11-15T15:10:57;12.70;99.90
23079;DHT22;11707;50.830;4.364;2022-11-15T15:13:24;12.70;99.90
23079;DHT22;11707;50.830;4.364;2022-11-15T15:15:51;12.70;99.90
23079;DHT22;11707;50.830;4.364;2022-11-15T15:18:17;12.70;99.90
23079;DHT22;11707;50.830;4.364;2022-11-15T15:20:45;12.60;99.90
23079;DHT22;11707;50.830;4.364;2022-11-15T15:23:17;12.60;99.90
23079;DHT22;11707;50.830;4.364;2022-11-15T15:25:43;12.60;99.90
23079;DHT22;11707;50.830;4.364;2022-11-15T15:28:11;12.60;99.90
23079;DHT22;11707;50.830;4.364;2022-11-15T15:30:37;12.60;99.90
23079;DHT22;11707;50.830;4.364;2022-11-15T15:33:02;12.60;99.90
23079;DHT22;11707;50.830;4.364;2022-11-15T15:35:30;12.50;99.90
23079;DHT22;11707;50.830;4.364;2022-11-15T15:37:57;12.50;99.90
23079;DHT22;11707;50.830;4.364;2022-11-15T15:40:24;12.60;99.90
23079;DHT22;11707;50.830;4.364;2022-11-15T15:42:51;12.60;99.90
23079;DHT22;11707;50.830;4.364;2022-11-15T15:45:18;12.60;99.90
23079;DHT22;11707;50.830;4.364;2022-11-15T15:47:44;12.60;99.90
23079;DHT22;11707;50.830;4.364;2022-11-15T15:52:46;12.50;99.90
23079;DHT22;11707;50.830;4.364;2022-11-15T15:55:12;12.50;99.90
23079;DHT22;11707;50.830;4.364;2022-11-15T15:57:38;12.50;99.90
23079;DHT22;11707;50.830;4.364;2022-11-15T16:00:04;12.50;99.90
23079;DHT22;11707;50.830;4.364;2022-11-15T16:02:30;12.50;99.90
23079;DHT22;11707;50.830;4.364;2022-11-15T16:04:56;12.50;99.90
23079;DHT22;11707;50.830;4.364;2022-11-15T16:07:22;12.60;99.90
23079;DHT22;11707;50.830;4.364;2022-11-15T16:09:51;12.60;99.90
23079;DHT22;11707;50.830;4.364;2022-11-15T16:12:30;12.60;99.90
23079;DHT22;11707;50.830;4.364;2022-11-15T16:14:56;12.50;99.90
23079;DHT22;11707;50.830;4.364;2022-11-15T16:17:27;12.50;99.90
23079;DHT22;11707;50.830;4.364;2022-11-15T16:19:54;12.40;99.90
23079;DHT22;11707;50.830;4.364;2022-11-15T16:22:20;12.40;99.90
23079;DHT22;11707;50.830;4.364;2022-11-15T16:24:45;12.40;99.90
23079;DHT22;11707;50.830;4.364;2022-11-15T16:27:17;12.40;99.90
23079;DHT22;11707;50.830;4.364;2022-11-15T16:29:43;12.50;99.90
23079;DHT22;11707;50.830;4.364;2022-11-15T16:32:09;12.40;99.90
23079;DHT22;11707;50.830;4.364;2022-11-15T16:34:35;12.40;99.90
23079;DHT22;11707;50.830;4.364;2022-11-15T16:37:01;12.40;99.90
23079;DHT22;11707;50.830;4.364;2022-11-15T16:39:27;12.40;99.90
23079;DHT22;11707;50.830;4.364;2022-11-15T16:41:56;12.40;99.90
23079;DHT22;11707;50.830;4.364;2022-11-15T16:44:22;12.40;99.90
23079;DHT22;11707;50.830;4.364;2022-11-15T16:46:49;12.40;99.90
23079;DHT22;11707;50.830;4.364;2022-11-15T16:49:17;12.40;99.90
23079;DHT22;11707;50.830;4.364;2022-11-15T16:51:47;12.50;99.90
23079;DHT22;11707;50.830;4.364;2022-11-15T16:54:14;12.50;99.90
23079;DHT22;11707;50.830;4.364;2022-11-15T16:56:41;12.40;99.90
23079;DHT22;11707;50.830;4.364;2022-11-15T16:59:08;12.40;99.90
23079;DHT22;11707;50.830;4.364;2022-11-15T17:01:37;12.30;99.90
23079;DHT22;11707;50.830;4.364;2022-11-15T17:04:11;12.30;99.90
23079;DHT22;11707;50.830;4.364;2022-11-15T17:06:38;12.20;99.90
23079;DHT22;11707;50.830;4.364;2022-11-15T17:09:05;12.40;99.90
23079;DHT22;11707;50.830;4.364;2022-11-15T17:11:32;12.40;99.90
23079;DHT22;11707;50.830;4.364;2022-11-15T17:13:58;12.50;99.90
23079;DHT22;11707;50.830;4.364;2022-11-15T17:16:24;12.40;99.90
23079;DHT22;11707;50.830;4.364;2022-11-15T17:18:50;12.40;99.90
23079;DHT22;11707;50.830;4.364;2022-11-15T17:21:19;12.40;99.90
23079;DHT22;11707;50.830;4.364;2022-11-15T17:23:45;12.30;99.90
23079;DHT22;11707;50.830;4.364;2022-11-15T17:26:12;12.30;99.90
23079;DHT22;11707;50.830;4.364;2022-11-15T17:28:39;12.30;99.90
23079;DHT22;11707;50.830;4.364;2022-11-15T17:31:07;12.30;99.90
23079;DHT22;11707;50.830;4.364;2022-11-15T17:33:34;12.40;99.90
23079;DHT22;11707;50.830;4.364;2022-11-15T17:36:01;12.50;99.90
23079;DHT22;11707;50.830;4.364;2022-11-15T17:38:28;12.40;99.90
23079;DHT22;11707;50.830;4.364;2022-11-15T17:41:01;12.40;99.90
23079;DHT22;11707;50.830;4.364;2022-11-15T17:43:29;12.40;99.90
23079;DHT22;11707;50.830;4.364;2022-11-15T17:45:55;12.40;99.90
23079;DHT22;11707;50.830;4.364;2022-11-15T17:48:20;12.40;99.90
23079;DHT22;11707;50.830;4.364;2022-11-15T17:50:56;12.30;99.90
23079;DHT22;11707;50.830;4.364;2022-11-15T17:53:24;12.30;99.90
23079;DHT22;11707;50.830;4.364;2022-11-15T17:55:50;12.20;99.90
23079;DHT22;11707;50.830;4.364;2022-11-15T17:58:16;12.20;99.90
23079;DHT22;11707;50.830;4.364;2022-11-15T18:00:44;12.20;99.90
23079;DHT22;11707;50.830;4.364;2022-11-15T18:03:10;12.30;99.90
23079;DHT22;11707;50.830;4.364;2022-11-15T18:05:36;12.40;99.90
23079;DHT22;11707;50.830;4.364;2022-11-15T18:08:02;12.30;99.90
23079;DHT22;11707;50.830;4.364;2022-11-15T18:10:28;12.30;99.90
23079;DHT22;11707;50.830;4.364;2022-11-15T18:12:54;12.30;99.90
23079;DHT22;11707;50.830;4.364;2022-11-15T18:15:20;12.30;99.90
23079;DHT22;11707;50.830;4.364;2022-11-15T18:17:46;12.40;99.90